West Toluca Lake, California
Current Conditions -  °F | °C
As of 2:53 PM on Friday 28 Nov 2014 (Local Time) from KBUR Reporting Station
Clear Clear  
Wind Chill: 80°   Ceiling: Unl
Heat Index: 80°   Visibility: 10mi
Dew Point: 33°   Wind: 8mph
Humidity: 18%   Direction: 170°S
Pressure: 29.89"   Gusts: NA
Location:  34.1506°N, 118.366°W
Report Text: KBUR 282253Z 17007KT 10SM CLR 27/01 A2989 RMK AO2 SLP110 T02670006
Loading
Personal Weather Stations






























Interactive Weather Map New forecast layout! Learn more

10-Day Weather Forecast

Advertisements
Track Severe Weather on mobile